Date,TemperatureHighF,TemperatureAvgF,TemperatureLowF,DewpointHighF,DewpointAvgF,DewpointLowF,HumidityHigh,HumidityAvg,HumidityLow,PressureMaxIn,PressureMinIn,WindSpeedMaxMPH,WindSpeedAvgMPH,GustSpeedMaxMPH,PrecipitationSumIn
2013-9-1,92.3,74.3,50.7,53.7,42.5,19.4,72,37,12,30.27,30.13,15,3,15,0.00
2013-9-2,90.7,72.4,58.0,55.3,49.8,43.1,69,48,21,30.25,30.11,24,4,24,0.00
2013-9-3,91.0,72.1,55.1,56.8,48.2,39.6,81,48,18,30.30,30.18,21,3,21,0.00
2013-9-4,94.1,76.4,56.7,54.7,46.4,34.3,68,39,14,30.37,30.24,18,3,18,0.00
2013-9-5,94.2,72.0,58.5,57.0,48.9,31.9,72,48,13,30.37,30.23,20,5,25,0.00
2013-9-6,93.5,74.0,57.3,55.6,47.2,35.5,71,43,15,30.35,30.17,28,5,28,0.00
2013-9-7,91.1,71.7,54.4,59.5,47.6,39.6,67,45,20,30.28,30.15,36,6,36,0.03
2013-9-8,85.8,67.9,55.3,56.2,51.3,45.9,86,58,29,30.21,30.03,26,5,26,0.00
2013-9-9,67.3,59.4,52.9,56.1,53.0,48.8,93,80,61,30.14,30.06,18,4,18,0.02
2013-9-10,68.3,57.5,52.3,58.3,52.5,49.3,92,84,64,30.25,30.13,23,7,23,0.00
2013-9-11,72.9,57.8,53.2,63.5,54.2,50.8,93,88,70,30.35,30.22,23,8,23,0.09
2013-9-12,74.0,60.6,53.4,62.6,55.4,51.3,94,84,64,30.35,30.19,34,11,34,0.12
2013-9-13,72.4,60.1,53.2,60.6,54.0,50.8,95,82,60,30.21,29.99,11,2,11,0.01
2013-9-14,72.0,57.3,48.8,61.2,52.1,47.1,94,84,56,30.14,29.99,16,4,16,0.23
2013-9-15,71.1,56.6,49.5,58.2,52.3,44.3,94,86,59,30.25,30.13,30,7,30,0.01
2013-9-16,77.7,59.0,43.7,57.4,48.3,42.2,95,72,33,30.22,30.09,29,4,29,0.00
2013-9-17,79.3,64.7,55.6,57.5,48.1,35.7,85,57,27,30.14,29.86,27,8,27,0.01
2013-9-18,74.3,62.2,44.9,53.1,43.0,27.2,84,51,33,30.07,29.84,31,10,31,0.00
2013-9-19,66.7,49.3,37.7,37.6,28.2,14.5,77,50,15,30.23,30.06,14,3,14,0.00
2013-9-20,75.3,49.9,30.0,40.8,26.9,11.0,90,52,10,30.24,30.05,26,3,26,0.00
2013-9-21,78.8,64.2,44.8,40.0,30.7,16.4,57,32,10,30.08,29.84,30,9,30,0.00
2013-9-22,73.3,56.4,45.2,49.6,43.3,35.9,92,64,31,29.86,29.68,31,6,31,0.02
2013-9-23,65.2,52.7,43.7,43.3,37.1,28.4,87,59,31,30.13,29.72,27,10,27,0.00
2013-9-24,71.4,56.0,40.8,40.8,34.1,24.0,77,47,21,30.17,29.84,42,11,42,0.00
2013-9-25,73.3,56.5,37.2,42.3,30.8,13.7,89,44,17,29.86,29.55,39,13,39,0.00
2013-9-26,75.3,50.7,37.0,45.3,38.0,32.9,88,66,24,29.81,29.67,18,5,18,0.00
2013-9-27,47.0,38.5,33.8,41.3,35.1,29.6,95,88,71,30.07,29.78,22,7,22,0.06
2013-9-28,59.5,44.3,32.9,40.3,32.1,27.3,85,63,43,30.22,30.07,38,11,38,0.00
2013-9-29,69.1,53.9,42.1,34.2,28.5,19.5,61,40,20,30.16,29.93,40,15,40,0.00
2013-9-30,75.2,59.7,49.4,38.5,31.0,26.7,52,35,22,30.02,29.83,41,13,41,0.00